Time;durP1;ratioP1;P1;durP2;ratioP2;P2;SDS_P1;SDS_P2;PMS_P1;PMS_P2;Temp;Humidity;BMP_temperature;BMP_pressure;BME280_temperature;BME280_humidity;BME280_pressure;Samples;Min_cycle;Max_cycle;Signal;HPM_P1;HPM_P2
2022/01/02 00:02:00;;;;;;;6.28;3.25;;;13.10;99.90;;;11.78;99.34;100779.28;5010599;28;20314;-84
2022/01/02 00:04:35;;;;;;;9.02;2.97;;;13.10;99.90;;;11.80;100.00;100758.13;5010872;28;20056;-84
2022/01/02 00:07:07;;;;;;;5.80;2.67;;;13.10;99.90;;;11.81;100.00;100770.72;5028739;28;20096;-84
2022/01/02 00:09:37;;;;;;;5.53;2.50;;;13.10;99.90;;;11.82;99.97;100764.22;5028511;28;20514;-84
2022/01/02 00:12:11;;;;;;;4.25;2.40;;;13.10;99.90;;;11.79;98.64;100765.47;5028423;28;20079;-84
2022/01/02 00:14:46;;;;;;;5.18;2.53;;;13.20;99.90;;;11.81;99.48;100768.00;5028302;28;20099;-84
2022/01/02 00:17:21;;;;;;;5.93;2.65;;;13.10;99.90;;;11.77;98.50;100764.81;5028216;28;20048;-84
2022/01/02 00:19:53;;;;;;;7.43;2.50;;;13.10;99.90;;;11.76;98.23;100762.25;5028643;28;20037;-84
2022/01/02 00:22:27;;;;;;;7.80;2.70;;;13.10;99.90;;;11.76;98.63;100754.06;5028149;28;20080;-84
2022/01/02 00:24:57;;;;;;;6.95;2.97;;;13.10;99.90;;;11.76;99.26;100768.53;5010691;28;20045;-84
2022/01/02 00:27:25;;;;;;;8.13;2.63;;;13.20;99.90;;;11.77;98.08;100767.53;5028353;28;20108;-84
2022/01/02 00:29:56;;;;;;;5.00;2.50;;;13.10;99.90;;;11.76;97.63;100773.16;5027916;28;20037;-84
2022/01/02 00:32:24;;;;;;;4.75;2.55;;;13.10;99.90;;;11.73;98.39;100763.47;5028193;28;20520;-84
2022/01/02 00:34:52;;;;;;;4.75;2.70;;;13.10;99.90;;;11.74;98.76;100766.00;5028341;28;20061;-84
2022/01/02 00:37:20;;;;;;;5.78;2.85;;;13.10;99.90;;;11.77;99.44;100758.50;5026722;28;20747;-84
2022/01/02 00:39:47;;;;;;;4.72;2.70;;;13.10;99.90;;;11.76;98.16;100754.91;5027226;28;20468;-84
2022/01/02 00:42:23;;;;;;;7.35;3.55;;;13.10;99.90;;;11.75;97.66;100764.13;5026734;28;20050;-84
2022/01/02 00:44:59;;;;;;;8.48;2.60;;;13.10;99.90;;;11.73;96.98;100758.03;5043655;22;20078;-87
2022/01/02 00:47:33;;;;;;;6.28;2.78;;;13.10;99.90;;;11.73;97.82;100758.88;4968305;28;20043;-87
2022/01/02 00:50:08;;;;;;;6.63;2.90;;;13.10;99.90;;;11.77;99.13;100751.16;4981462;28;20526;-86
2022/01/02 00:52:38;;;;;;;5.57;2.50;;;13.10;99.90;;;11.77;97.86;100742.16;4987436;28;20051;-86
2022/01/02 00:55:09;;;;;;;4.20;2.40;;;13.10;99.90;;;11.76;97.39;100737.72;4988935;28;20054;-87
2022/01/02 00:57:41;;;;;;;8.50;2.90;;;13.10;99.90;;;11.80;97.29;100758.13;4989248;28;20398;-86
2022/01/02 01:00:14;;;;;;;4.40;2.40;;;13.10;99.90;;;11.77;97.56;100753.06;4989061;28;20577;-86
2022/01/02 01:02:47;;;;;;;5.53;2.35;;;13.10;99.90;;;11.76;97.06;100771.28;4987394;28;20077;-87
2022/01/02 01:05:22;;;;;;;9.73;3.00;;;13.20;99.90;;;11.75;96.73;100777.78;4989030;28;20129;-86
2022/01/02 01:07:52;;;;;;;6.93;3.08;;;13.10;99.90;;;11.77;96.77;100774.88;4989014;28;20132;-86
2022/01/02 01:10:20;;;;;;;5.28;2.70;;;13.10;99.90;;;11.72;97.10;100768.06;4987581;28;20054;-86
2022/01/02 01:12:52;;;;;;;4.80;2.72;;;13.10;99.90;;;11.72;96.75;100768.06;4992131;28;20046;-87
2022/01/02 01:15:24;;;;;;;5.88;2.67;;;13.10;99.90;;;11.78;97.73;100752.00;4991154;28;20053;-87
2022/01/02 01:17:54;;;;;;;7.43;2.70;;;13.20;99.90;;;11.78;96.00;100765.63;4992669;28;20689;-87
2022/01/02 01:20:23;;;;;;;7.38;2.97;;;13.20;99.90;;;11.77;96.09;100762.06;4991107;28;20050;-87
2022/01/02 01:22:51;;;;;;;5.82;2.70;;;13.20;99.90;;;11.76;96.68;100773.16;4990830;28;20097;-86
2022/01/02 01:25:22;;;;;;;4.88;2.63;;;13.20;99.90;;;11.78;96.49;100768.38;4991010;28;20273;-87
2022/01/02 01:27:51;;;;;;;6.93;3.05;;;13.20;99.90;;;11.77;96.96;100777.59;4992268;28;20038;-86
2022/01/02 01:30:22;;;;;;;5.32;2.53;;;13.20;99.90;;;11.79;96.92;100783.72;4992335;28;20097;-87
2022/01/02 01:32:50;;;;;;;6.10;2.50;;;13.10;99.90;;;11.80;96.22;100769.03;4990671;28;20466;-87
2022/01/02 01:35:17;;;;;;;7.63;3.08;;;13.20;99.90;;;11.81;96.14;100770.72;4990822;28;20436;-86
2022/01/02 01:37:46;;;;;;;5.95;2.80;;;13.20;99.90;;;11.79;96.40;100780.97;4990625;28;20042;-86
2022/01/02 01:40:15;;;;;;;6.47;2.85;;;13.20;99.90;;;11.82;96.06;100780.59;4990706;28;20092;-87
2022/01/02 01:42:54;;;;;;;6.78;2.50;;;13.20;99.90;;;11.82;96.19;100783.31;4990138;28;20062;-86
2022/01/02 01:45:29;;;;;;;5.88;2.72;;;13.20;99.90;;;11.77;96.51;100786.63;4990399;28;20046;-86
2022/01/02 01:48:01;;;;;;;5.78;2.80;;;13.20;99.90;;;11.82;96.28;100786.91;4990155;28;20057;-87
2022/01/02 01:50:31;;;;;;;10.07;3.60;;;13.20;99.90;;;11.82;96.02;100780.59;4990557;28;20054;-87
2022/01/02 01:52:58;;;;;;;7.30;2.58;;;13.20;99.90;;;11.84;96.89;100770.34;4989905;28;20046;-86
2022/01/02 01:55:26;;;;;;;6.40;2.90;;;13.20;99.90;;;11.86;96.54;100766.41;4991764;28;20052;-87
2022/01/02 01:57:54;;;;;;;8.35;2.75;;;13.20;99.90;;;11.87;95.67;100762.63;4990477;28;20078;-87
2022/01/02 02:00:25;;;;;;;4.97;2.80;;;13.30;99.90;;;11.87;96.66;100769.97;4990255;28;20054;-87
2022/01/02 02:02:59;;;;;;;6.95;2.75;;;13.30;99.90;;;11.90;97.10;100754.13;4989945;28;20502;-87
2022/01/02 02:05:27;;;;;;;7.55;2.83;;;13.20;99.90;;;11.88;96.79;100747.97;4989854;28;20058;-87
2022/01/02 02:07:54;;;;;;;5.55;3.13;;;13.30;99.90;;;11.85;96.84;100755.69;4990208;28;20042;-88
2022/01/02 02:10:29;;;;;;;5.25;2.65;;;13.20;99.90;;;11.85;96.99;100763.88;4989803;28;20105;-86
2022/01/02 02:13:05;;;;;;;7.53;2.80;;;13.20;99.90;;;11.80;97.50;100752.66;5006000;28;20723;-86
2022/01/02 02:15:37;;;;;;;6.80;3.08;;;13.20;99.90;;;11.84;97.87;100745.78;5006006;28;20057;-87
2022/01/02 02:18:05;;;;;;;8.07;2.90;;;13.20;99.90;;;11.83;98.00;100742.22;4989670;28;20058;-87
2022/01/02 02:20:36;;;;;;;7.25;3.10;;;13.20;99.90;;;11.83;97.57;100738.66;4989650;28;20134;-87
2022/01/02 02:23:09;;;;;;;6.38;2.70;;;13.20;99.90;;;11.83;97.47;100742.22;5005995;28;20043;-86
2022/01/02 02:25:39;;;;;;;6.88;2.88;;;13.20;99.90;;;11.82;97.21;100750.59;4989682;28;20105;-87
2022/01/02 02:28:11;;;;;;;6.80;3.05;;;13.20;99.90;;;11.83;98.07;100746.84;4989820;28;20070;-87
2022/01/02 02:30:41;;;;;;;10.02;3.45;;;13.10;99.90;;;11.81;97.78;100743.47;4989363;28;20058;-87
2022/01/02 02:33:11;;;;;;;6.78;2.88;;;13.10;99.90;;;11.80;97.30;100741.75;4972886;28;20054;-86
2022/01/02 02:35:47;;;;;;;8.68;3.00;;;13.10;99.90;;;11.81;97.67;100735.28;4970260;28;20046;-86
2022/01/02 02:38:18;;;;;;;7.53;2.95;;;13.20;99.90;;;11.79;98.63;100734.63;4970061;28;20042;-86
2022/01/02 02:40:48;;;;;;;13.15;3.20;;;13.10;99.90;;;11.79;98.22;100740.91;4969917;28;20043;-87
2022/01/02 02:43:26;;;;;;;9.45;3.00;;;13.10;99.90;;;11.80;98.05;100741.75;4971253;28;20041;-86
2022/01/02 02:49:00;;;;;;;10.45;3.47;;;13.10;99.90;;;11.79;98.92;100746.38;4986024;28;20098;-87
2022/01/02 02:51:43;;;;;;;9.63;3.08;;;13.10;99.90;;;11.80;98.65;100733.56;4977539;28;20100;-86
2022/01/02 02:54:20;;;;;;;7.43;3.35;;;13.10;99.90;;;11.79;98.63;100724.56;5004785;28;20138;-87
2022/01/02 02:56:56;;;;;;;8.38;3.42;;;13.10;99.90;;;11.80;98.04;100703.59;4990455;28;20120;-87
2022/01/02 02:59:24;;;;;;;6.38;2.88;;;13.10;99.90;;;11.80;98.29;100677.16;4989017;28;20050;-86
2022/01/02 03:01:53;;;;;;;9.40;3.13;;;13.10;99.90;;;11.82;98.29;100671.50;5005061;28;20046;-87
2022/01/02 03:04:21;;;;;;;8.93;3.38;;;13.10;99.90;;;11.85;98.73;100671.16;5005449;28;20046;-86
2022/01/02 03:06:50;;;;;;;9.23;2.80;;;13.10;99.90;;;11.85;98.79;100674.72;5005476;28;20157;-87
2022/01/02 03:09:31;;;;;;;6.82;3.22;;;13.10;99.90;;;11.83;99.24;100665.88;5005323;28;20050;-86
2022/01/02 03:11:58;;;;;;;7.38;3.60;;;13.10;99.90;;;11.84;99.90;100677.63;4988480;28;20042;-85
2022/01/02 03:14:26;;;;;;;7.93;2.90;;;13.10;99.90;;;11.84;99.82;100664.84;4988592;28;20069;-86
2022/01/02 03:16:54;;;;;;;9.30;3.20;;;13.10;99.90;;;11.86;99.42;100681.00;4988816;28;20054;-87
2022/01/02 03:19:21;;;;;;;7.05;2.90;;;13.10;99.90;;;11.87;100.00;100672.63;4988625;28;20050;-86
2022/01/02 03:21:50;;;;;;;6.68;2.95;;;13.10;99.90;;;11.87;100.00;100658.16;4988300;28;20103;-86
2022/01/02 03:24:17;;;;;;;8.27;3.75;;;13.10;99.90;;;11.90;100.00;100666.00;4988421;28;20132;-86
2022/01/02 03:26:45;;;;;;;15.40;3.88;;;13.10;99.90;;;11.86;100.00;100664.63;4988493;28;20046;-87
2022/01/02 03:29:12;;;;;;;7.70;2.90;;;13.10;99.90;;;11.89;100.00;100664.28;4988477;28;20042;-86
2022/01/02 03:31:39;;;;;;;9.30;3.20;;;13.10;99.90;;;11.87;100.00;100660.91;4989586;28;20074;-87
2022/01/02 03:34:07;;;;;;;9.85;3.42;;;13.10;99.90;;;11.85;100.00;100654.78;4988095;28;20054;-87
2022/01/02 03:36:34;;;;;;;7.47;3.10;;;13.10;99.90;;;11.88;100.00;100657.13;4988355;28;20112;-87
2022/01/02 03:39:04;;;;;;;8.38;3.08;;;13.10;99.90;;;11.86;100.00;100651.00;4989903;28;20507;-86
2022/01/02 03:41:32;;;;;;;10.53;3.07;;;13.10;99.90;;;11.86;100.00;100660.06;4988304;28;20054;-86
2022/01/02 03:44:00;;;;;;;8.25;3.42;;;13.10;99.90;;;11.84;100.00;100655.81;4988472;28;20042;-86
2022/01/02 03:46:27;;;;;;;9.13;3.28;;;13.10;99.90;;;11.81;100.00;100662.50;5004347;28;20100;-87
2022/01/02 03:48:55;;;;;;;9.38;3.22;;;13.10;99.90;;;11.83;100.00;100665.03;4988202;28;20045;-86
2022/01/02 03:51:23;;;;;;;10.63;3.40;;;13.10;99.90;;;11.81;100.00;100648.84;4987757;28;20061;-86
2022/01/02 03:53:50;;;;;;;11.52;3.50;;;13.10;99.90;;;11.84;100.00;100653.09;5004348;28;20053;-86
2022/01/02 03:56:19;;;;;;;10.82;3.00;;;13.10;99.90;;;11.83;100.00;100640.50;4986467;28;20100;-86
2022/01/02 03:58:46;;;;;;;11.15;3.47;;;13.10;99.90;;;11.86;100.00;100635.50;4968656;28;20053;-87
2022/01/02 04:01:13;;;;;;;11.75;3.30;;;13.10;99.90;;;11.87;100.00;100628.16;4968407;28;20297;-87
2022/01/02 04:03:41;;;;;;;12.30;3.70;;;13.10;99.90;;;11.88;100.00;100613.47;4968571;28;20050;-86
2022/01/02 04:06:08;;;;;;;11.02;3.42;;;13.10;99.90;;;11.90;100.00;100615.03;4969729;28;20570;-87
2022/01/02 04:08:35;;;;;;;8.35;3.58;;;13.10;99.90;;;11.86;100.00;100602.78;4968397;28;20130;-86
2022/01/02 04:11:02;;;;;;;8.10;3.55;;;13.00;99.90;;;11.86;100.00;100604.66;4991536;28;20050;-86
2022/01/02 04:13:31;;;;;;;8.52;3.20;;;13.00;99.90;;;11.84;100.00;100621.22;5004076;28;20438;-86
2022/01/02 04:16:00;;;;;;;20.83;4.25;;;13.00;99.90;;;11.83;100.00;100615.94;4987605;28;20061;-87
2022/01/02 04:18:27;;;;;;;8.02;3.40;;;13.00;99.90;;;11.84;100.00;100612.19;5004013;28;20121;-85
2022/01/02 04:20:54;;;;;;;9.82;3.67;;;13.00;99.90;;;11.82;100.00;100615.13;4987492;28;20082;-86
2022/01/02 04:23:22;;;;;;;7.78;3.47;;;13.00;99.90;;;11.77;100.00;100611.28;4987143;28;20066;-86
2022/01/02 04:25:49;;;;;;;10.20;3.30;;;13.00;99.90;;;11.71;100.00;100604.69;4987511;28;20744;-86
2022/01/02 04:28:17;;;;;;;14.52;4.10;;;13.00;99.90;;;11.77;100.00;100594.91;4968917;28;20149;-87
2022/01/02 04:30:45;;;;;;;10.45;3.70;;;13.00;99.90;;;11.73;100.00;100610.81;4968108;28;20043;-86
2022/01/02 04:33:13;;;;;;;9.45;3.17;;;13.00;99.90;;;11.73;100.00;100611.63;4967417;28;20515;-87
2022/01/02 04:35:41;;;;;;;14.30;4.13;;;13.00;99.90;;;11.71;100.00;100602.81;4967966;28;20113;-87
2022/01/02 04:38:08;;;;;;;12.82;4.18;;;13.00;99.90;;;11.70;100.00;100606.56;4968073;28;20051;-86
2022/01/02 04:40:36;;;;;;;9.73;3.83;;;13.00;99.90;;;11.64;100.00;100595.56;4968333;28;20062;-86
2022/01/02 04:43:06;;;;;;;8.90;3.50;;;13.00;99.90;;;11.68;100.00;100614.06;4967147;28;20519;-86
2022/01/02 04:45:34;;;;;;;9.93;3.80;;;13.00;99.90;;;11.63;100.00;100610.22;4967875;28;20082;-86
2022/01/02 04:48:03;;;;;;;11.13;3.80;;;13.00;99.90;;;11.61;100.00;100598.66;4973138;28;20066;-86
2022/01/02 04:50:31;;;;;;;13.25;3.95;;;13.00;99.90;;;11.67;100.00;100589.72;4973213;28;20447;-86
2022/01/02 04:52:59;;;;;;;9.02;3.95;;;13.00;99.90;;;11.68;100.00;100585.97;5005236;28;20054;-87
2022/01/02 04:55:27;;;;;;;12.63;4.20;;;12.90;99.90;;;11.69;100.00;100583.06;4991066;28;20093;-86
2022/01/02 04:57:54;;;;;;;13.55;4.20;;;12.90;99.90;;;11.60;100.00;100584.19;5007497;28;20451;-86
2022/01/02 05:00:22;;;;;;;9.60;3.80;;;13.00;99.90;;;11.56;100.00;100588.34;4990975;28;20138;-87
2022/01/02 05:02:52;;;;;;;12.35;4.38;;;13.00;99.90;;;11.59;100.00;100579.78;4990179;28;20050;-87
2022/01/02 05:05:21;;;;;;;8.82;3.70;;;13.00;99.90;;;11.50;100.00;100580.94;4990894;28;20058;-87
2022/01/02 05:07:49;;;;;;;9.13;4.03;;;13.00;99.90;;;11.46;100.00;100587.78;4990718;28;20046;-87
2022/01/02 05:10:16;;;;;;;11.15;3.92;;;13.00;99.90;;;11.50;100.00;100589.94;4990979;28;20042;-87
2022/01/02 05:12:44;;;;;;;16.52;4.43;;;12.90;99.90;;;11.54;100.00;100582.25;4990058;28;20100;-87
2022/01/02 05:15:11;;;;;;;12.32;4.25;;;12.90;99.90;;;11.57;100.00;100568.22;4992166;28;20062;-87
2022/01/02 05:17:39;;;;;;;13.40;4.15;;;12.90;99.90;;;11.57;100.00;100560.03;4990741;28;20100;-87
2022/01/02 05:20:08;;;;;;;10.00;4.05;;;12.90;99.90;;;11.55;100.00;100549.31;4990797;28;20035;-87
2022/01/02 05:22:38;;;;;;;8.18;3.42;;;12.90;99.90;;;11.51;100.00;100553.47;4990007;28;20050;-87
2022/01/02 05:25:07;;;;;;;10.75;3.60;;;12.90;99.90;;;11.51;100.00;100553.47;4990841;28;20136;-86
2022/01/02 05:27:34;;;;;;;9.30;3.92;;;12.90;99.90;;;11.53;100.00;100543.22;4990381;28;20047;-88
2022/01/02 05:30:03;;;;;;;15.88;4.40;;;12.80;99.90;;;11.54;100.00;100525.00;5007148;28;20502;-87
2022/01/02 05:32:31;;;;;;;8.45;3.78;;;12.80;99.90;;;11.59;100.00;100541.63;4989740;28;20046;-87
2022/01/02 05:34:59;;;;;;;11.77;3.90;;;12.80;99.90;;;11.58;100.00;100525.47;4990485;28;20054;-86
2022/01/02 05:37:27;;;;;;;10.52;3.58;;;12.80;99.90;;;11.58;100.00;100523.59;5006844;28;20510;-86
2022/01/02 05:39:55;;;;;;;9.27;4.00;;;12.80;99.90;;;11.55;100.00;100522.06;4991704;28;20051;-87
2022/01/02 05:42:26;;;;;;;13.90;4.72;;;12.80;99.90;;;11.55;100.00;100515.78;4989683;28;20116;-86
2022/01/02 05:44:53;;;;;;;13.85;3.78;;;12.80;99.90;;;11.57;100.00;100512.88;4990447;28;20459;-86
2022/01/02 05:47:20;;;;;;;11.43;4.15;;;12.80;99.90;;;11.58;100.00;100512.69;4990258;28;20471;-87
2022/01/02 05:49:48;;;;;;;9.30;3.65;;;12.80;99.90;;;11.57;100.00;100519.16;4990362;28;20133;-87
2022/01/02 05:52:15;;;;;;;12.43;4.32;;;12.80;99.90;;;11.49;100.00;100520.09;4989673;28;20089;-86
2022/01/02 05:54:42;;;;;;;11.73;4.22;;;12.80;99.90;;;11.53;100.00;100513.22;4990153;28;20046;-88
2022/01/02 05:57:11;;;;;;;13.90;4.70;;;12.80;99.90;;;11.52;100.00;100488.94;4991092;28;20064;-87
2022/01/02 05:59:39;;;;;;;11.98;4.22;;;12.80;99.90;;;11.55;100.00;100493.97;4991676;28;20093;-87
2022/01/02 06:02:07;;;;;;;12.45;4.18;;;12.80;99.90;;;11.53;100.00;100476.97;4990804;28;20046;-87
2022/01/02 06:04:39;;;;;;;9.48;3.85;;;12.80;99.90;;;11.53;100.00;100474.25;5006909;28;20062;-86
2022/01/02 06:07:06;;;;;;;10.15;4.40;;;12.80;99.90;;;11.56;100.00;100473.88;4990455;28;20221;-87
2022/01/02 06:09:34;;;;;;;12.45;4.25;;;12.80;99.90;;;11.58;100.00;100493.59;4990491;28;20526;-86
2022/01/02 06:12:01;;;;;;;13.35;4.10;;;12.80;99.90;;;11.59;100.00;100488.97;4989041;28;20046;-86
2022/01/02 06:14:31;;;;;;;9.38;3.78;;;12.80;99.90;;;11.54;100.00;100486.84;5006033;28;20549;-87
2022/01/02 06:16:58;;;;;;;11.68;4.80;;;12.80;99.90;;;11.54;100.00;100478.66;5005948;28;20053;-86
2022/01/02 06:19:26;;;;;;;11.48;4.25;;;12.80;99.90;;;11.53;100.00;100464.19;5006122;28;20815;-87
2022/01/02 06:21:54;;;;;;;12.13;4.82;;;12.80;99.90;;;11.57;100.00;100459.19;4989050;28;20406;-87
2022/01/02 06:24:21;;;;;;;14.27;4.45;;;12.80;99.90;;;11.55;100.00;100453.09;5006040;28;20081;-86
2022/01/02 06:26:49;;;;;;;15.85;4.35;;;12.80;99.90;;;11.57;100.00;100442.00;4989698;28;20051;-86
2022/01/02 06:29:16;;;;;;;9.98;4.25;;;12.80;99.90;;;11.58;100.00;100433.63;5006013;28;20058;-87
2022/01/02 06:31:45;;;;;;;11.27;4.38;;;12.80;99.90;;;11.58;100.00;100436.38;5005393;28;20134;-86
2022/01/02 06:34:13;;;;;;;14.23;4.28;;;12.80;99.90;;;11.56;100.00;100441.16;4985708;28;20047;-87
2022/01/02 06:36:40;;;;;;;15.02;4.50;;;12.80;99.90;;;11.55;100.00;100434.84;4971522;28;20074;-86
2022/01/02 06:39:07;;;;;;;14.30;4.25;;;12.80;99.90;;;11.55;100.00;100428.56;4971181;28;20061;-86
2022/01/02 06:41:35;;;;;;;11.82;4.05;;;12.80;99.90;;;11.55;100.00;100423.09;4970730;28;20097;-86
2022/01/02 06:44:02;;;;;;;14.98;4.40;;;12.70;99.90;;;11.56;100.00;100430.25;4969712;28;20053;-86
2022/01/02 06:46:30;;;;;;;14.05;4.40;;;12.70;99.90;;;11.56;100.00;100424.81;5029330;23;20057;-83
2022/01/02 06:48:58;;;;;;;14.98;4.03;;;12.70;99.90;;;11.58;100.00;100425.47;5028396;28;20124;-82
2022/01/02 06:51:25;;;;;;;13.82;4.18;;;12.70;99.90;;;11.54;100.00;100416.00;5026538;28;20132;-82
2022/01/02 06:53:53;;;;;;;10.25;4.30;;;12.80;99.90;;;11.55;100.00;100417.66;5027483;28;20141;-82
2022/01/02 06:56:20;;;;;;;13.18;3.92;;;12.70;99.90;;;11.55;100.00;100420.38;5029259;28;20080;-82
2022/01/02 06:58:47;;;;;;;12.00;4.55;;;12.70;99.90;;;11.54;100.00;100410.53;5044759;28;20054;-82
2022/01/02 07:01:15;;;;;;;11.52;4.15;;;12.70;99.90;;;11.53;100.00;100403.38;5027314;28;20041;-82
2022/01/02 07:03:42;;;;;;;14.57;5.95;;;12.70;99.90;;;11.53;100.00;100392.47;5044850;28;20060;-82
2022/01/02 07:06:11;;;;;;;12.27;4.90;;;12.80;99.90;;;11.56;100.00;100386.66;5027907;28;20061;-82
2022/01/02 07:08:39;;;;;;;12.07;4.72;;;12.80;99.90;;;11.54;100.00;100378.66;5027443;28;20199;-82
2022/01/02 07:11:08;;;;;;;14.60;4.25;;;12.80;99.90;;;11.55;100.00;100368.59;5028592;28;20048;-82
2022/01/02 07:13:36;;;;;;;11.27;4.30;;;12.80;99.90;;;11.50;100.00;100352.00;5029364;28;20099;-82
2022/01/02 07:16:03;;;;;;;10.18;4.43;;;12.80;99.90;;;11.45;100.00;100317.16;5028822;28;20080;-82
2022/01/02 07:18:30;;;;;;;9.48;4.32;;;12.80;99.90;;;11.50;100.00;100316.59;5029270;28;20069;-85
2022/01/02 07:20:58;;;;;;;11.65;4.30;;;12.80;99.90;;;11.49;100.00;100320.34;5028876;28;20042;-87
2022/01/02 07:23:26;;;;;;;9.98;4.07;;;12.80;99.90;;;11.49;100.00;100325.78;5029101;28;20037;-87
2022/01/02 07:25:54;;;;;;;12.70;4.03;;;12.80;99.90;;;11.48;100.00;100330.41;5029077;28;20041;-88
2022/01/02 07:28:21;;;;;;;14.48;4.70;;;12.70;99.90;;;11.47;100.00;100333.31;5027654;28;20533;-87
2022/01/02 07:30:49;;;;;;;10.27;4.07;;;12.80;99.90;;;11.46;100.00;100334.34;5029494;28;20045;-85
2022/01/02 07:33:16;;;;;;;13.15;4.28;;;12.70;99.90;;;11.46;100.00;100337.06;5026734;28;20041;-88
2022/01/02 07:35:46;;;;;;;13.82;4.40;;;12.70;99.90;;;11.40;100.00;100335.13;5029105;28;20038;-87
2022/01/02 07:38:13;;;;;;;11.70;4.13;;;12.70;99.90;;;11.41;100.00;100339.53;5029026;28;20037;-89
2022/01/02 07:40:42;;;;;;;13.20;4.38;;;12.70;99.90;;;11.42;100.00;100335.75;5044240;28;20054;-88
2022/01/02 07:43:09;;;;;;;10.00;3.63;;;12.70;99.90;;;11.43;100.00;100323.84;5027075;28;20099;-89
2022/01/02 07:45:37;;;;;;;12.82;4.20;;;12.70;99.90;;;11.40;100.00;100316.88;5027473;28;20045;-88
2022/01/02 07:48:04;;;;;;;11.45;4.03;;;12.70;99.90;;;11.47;100.00;100316.97;5027581;28;20484;-88
2022/01/02 07:50:31;;;;;;;10.52;4.20;;;12.80;99.90;;;11.49;100.00;100303.97;5044300;28;20042;-87
2022/01/02 07:52:59;;;;;;;11.55;4.10;;;12.80;99.90;;;11.50;100.00;100300.22;5026838;28;20072;-87
2022/01/02 07:55:26;;;;;;;11.93;3.90;;;12.80;99.90;;;11.51;100.00;100291.00;5020704;28;20115;-88
2022/01/02 07:57:55;;;;;;;9.80;4.00;;;12.80;99.90;;;11.51;100.00;100274.66;5010365;28;20050;-89
2022/01/02 08:00:23;;;;;;;10.57;3.72;;;12.80;99.90;;;11.50;100.00;100267.53;5008190;28;20484;-89
2022/01/02 08:02:51;;;;;;;9.00;3.97;;;12.80;99.90;;;11.47;100.00;100246.09;5007175;28;20118;-88
2022/01/02 08:05:18;;;;;;;9.98;4.25;;;12.80;99.90;;;11.49;100.00;100222.22;5008964;28;20088;-87
2022/01/02 08:07:46;;;;;;;14.75;4.40;;;12.70;99.90;;;11.50;100.00;100232.94;5008911;28;20132;-86
2022/01/02 08:10:13;;;;;;;12.80;3.95;;;12.80;99.90;;;11.50;100.00;100211.13;5008978;28;20046;-86
2022/01/02 08:12:40;;;;;;;7.78;3.40;;;12.80;99.90;;;11.46;100.00;100207.13;5023294;28;20530;-87
2022/01/02 08:15:10;;;;;;;12.70;3.85;;;12.80;99.90;;;11.45;100.00;100204.59;5007720;28;20050;-85
2022/01/02 08:17:38;;;;;;;9.02;4.18;;;12.80;99.90;;;11.47;100.00;100199.78;5007640;28;20054;-87
2022/01/02 08:20:07;;;;;;;10.25;4.00;;;12.80;99.90;;;11.50;100.00;100188.50;5009836;28;20070;-87
2022/01/02 08:22:34;;;;;;;12.63;4.18;;;12.80;99.90;;;11.51;100.00;100179.25;5026739;28;20050;-87
2022/01/02 08:25:02;;;;;;;8.52;3.63;;;12.80;99.90;;;11.47;100.00;100176.09;5027956;28;20520;-87
2022/01/02 08:27:29;;;;;;;10.98;4.00;;;12.70;99.90;;;11.50;100.00;100170.25;5012870;28;20502;-88
2022/01/02 08:29:56;;;;;;;7.35;3.50;;;12.80;99.90;;;11.51;100.00;100176.53;5028006;28;20502;-88
2022/01/02 08:32:25;;;;;;;9.50;3.67;;;12.80;99.90;;;11.53;100.00;100177.19;5011704;28;20038;-89
2022/01/02 08:34:53;;;;;;;10.23;4.00;;;12.80;99.90;;;11.52;100.00;100186.41;5011241;28;20688;-87
2022/01/02 08:37:20;;;;;;;9.20;3.10;;;12.80;99.90;;;11.51;100.00;100203.78;5011509;28;20054;-87
2022/01/02 08:39:48;;;;;;;9.23;3.70;;;12.80;99.90;;;11.42;100.00;100170.38;5028274;28;20125;-86
2022/01/02 08:42:16;;;;;;;9.65;3.50;;;12.80;99.90;;;11.45;100.00;100156.38;5010457;28;20073;-86
2022/01/02 08:44:44;;;;;;;9.57;3.80;;;12.80;99.90;;;11.42;100.00;100155.94;5012427;28;20050;-87
2022/01/02 08:47:12;;;;;;;9.25;3.50;;;12.80;99.90;;;11.41;100.00;100143.38;5011728;28;20500;-79
2022/01/02 08:49:42;;;;;;;11.02;4.03;;;12.80;99.90;;;11.42;100.00;100150.47;5012775;28;20136;-87
2022/01/02 08:52:09;;;;;;;9.60;3.55;;;12.80;99.90;;;11.45;100.00;100150.09;5024367;28;20056;-85
2022/01/02 08:54:38;;;;;;;8.10;3.50;;;12.80;99.90;;;11.45;100.00;100129.13;5031487;28;20045;-85
2022/01/02 08:57:06;;;;;;;8.27;3.33;;;12.80;99.90;;;11.48;100.00;100142.38;5047189;28;20068;-87
2022/01/02 08:59:33;;;;;;;7.13;3.33;;;12.70;99.90;;;11.34;100.00;100155.03;5030655;28;20164;-86
2022/01/02 09:02:01;;;;;;;7.93;3.33;;;12.70;99.90;;;11.39;100.00;100156.34;5029552;28;20650;-86
2022/01/02 09:04:29;;;;;;;7.07;3.10;;;12.80;99.90;;;11.43;100.00;100150.28;5027652;28;20051;-86
2022/01/02 09:06:58;;;;;;;8.38;2.80;;;12.70;99.90;;;11.46;100.00;100184.47;5046877;28;20103;-86
2022/01/02 09:09:25;;;;;;;7.05;2.97;;;12.80;99.90;;;11.46;100.00;100173.56;5030540;28;20080;-87
2022/01/02 09:11:52;;;;;;;5.45;2.97;;;12.80;99.90;;;11.46;100.00;100192.63;5029224;28;20144;-86
2022/01/02 09:14:20;;;;;;;8.32;3.50;;;12.80;99.90;;;11.47;100.00;100183.44;5028539;28;20115;-86
2022/01/02 09:16:47;;;;;;;9.65;3.30;;;12.80;99.90;;;11.45;100.00;100193.69;5026358;28;20091;-86
2022/01/02 09:19:15;;;;;;;5.03;2.88;;;12.80;99.90;;;11.44;100.00;100198.31;5026983;28;20575;-87
2022/01/02 09:21:42;;;;;;;6.07;3.10;;;12.80;99.90;;;11.48;100.00;100196.88;5045266;28;20136;-85
2022/01/02 09:24:11;;;;;;;8.25;3.03;;;12.80;99.90;;;11.50;100.00;100180.31;5046069;28;20069;-87
2022/01/02 09:26:38;;;;;;;7.00;3.15;;;12.80;99.90;;;11.51;100.00;100182.00;5045905;28;20049;-88
2022/01/02 09:29:05;;;;;;;7.57;3.20;;;12.80;99.90;;;11.54;100.00;100182.44;5029201;28;20104;-86
2022/01/02 09:31:33;;;;;;;6.00;2.80;;;12.80;99.90;;;11.54;100.00;100189.78;5027962;28;20462;-88
2022/01/02 09:34:00;;;;;;;7.45;2.88;;;12.80;99.90;;;11.56;100.00;100176.78;5030406;28;20049;-85
2022/01/02 09:36:28;;;;;;;5.35;2.88;;;12.90;99.90;;;11.57;100.00;100175.72;5030005;28;20041;-86
2022/01/02 09:38:56;;;;;;;8.27;3.05;;;12.90;99.90;;;11.61;100.00;100174.28;5030125;28;20126;-86
2022/01/02 09:41:25;;;;;;;7.35;3.10;;;12.90;99.90;;;11.62;100.00;100178.72;5010650;28;20041;-86
2022/01/02 09:43:52;;;;;;;4.45;2.63;;;13.00;99.90;;;11.63;100.00;100171.38;5002372;28;20073;-86
2022/01/02 09:46:26;;;;;;;11.10;3.30;;;12.90;99.90;;;11.66;100.00;100179.16;5017243;28;20470;-88
2022/01/02 09:48:58;;;;;;;5.82;3.00;;;13.00;99.90;;;11.65;100.00;100172.88;4998425;28;20081;-88
2022/01/02 09:51:30;;;;;;;6.78;2.92;;;13.00;99.90;;;11.63;100.00;100196.75;5009201;28;20073;-88
2022/01/02 09:53:57;;;;;;;;;;;13.00;99.90;;;11.66;100.00;100185.44;5009697;28;20046;-88
2022/01/02 09:56:26;;;;;;;8.35;3.10;;;13.00;99.90;;;11.66;98.66;100184.59;5012081;28;19961;-89
2022/01/02 09:58:53;;;;;;;6.45;2.50;;;13.00;99.90;;;11.67;98.88;100178.97;5005594;28;20037;-88
2022/01/02 10:01:24;;;;;;;6.47;3.10;;;13.00;99.90;;;11.64;98.20;100168.44;5000955;28;20069;-88
2022/01/02 10:03:54;;;;;;;7.00;2.90;;;13.00;99.90;;;11.66;99.30;100190.91;5006598;28;20049;-89
2022/01/02 10:06:38;;;;;;;7.28;2.63;;;13.00;99.90;;;11.66;99.86;100180.00;5018286;28;20064;-88
2022/01/02 10:09:05;;;;;;;5.20;2.83;;;13.00;99.90;;;11.67;99.51;100187.13;4999313;28;20053;-88
2022/01/02 10:11:35;;;;;;;7.30;2.95;;;13.00;99.90;;;11.71;99.17;100201.22;5024548;28;20140;-88
2022/01/02 10:14:04;;;;;;;5.78;2.88;;;13.00;99.90;;;11.73;98.53;100208.13;5002153;28;20068;-88
2022/01/02 10:16:33;;;;;;;6.30;2.83;;;13.10;99.90;;;11.77;98.67;100215.94;5006976;28;20884;-87